Hafnia Daisy — 9HA4205 — position and weather

sailwx.info

Track history (hours):
 
Tides and Currents Weather Stations Pressure Air Temp Water Temp Dewpoint Dewpoint Depression Visibility Wind Speed Wind Dir Waves Ship Positions

Hafnia Daisy

Last reported at 2018-Aug-17 11:29 UTC. Time now 2018-Aug-17 11:41 UTC.
Position N 51°42' W 005°03'.

Length 183 m; draft 8.1 m.

Type: Tanker. MMSI: 249347000.

Date/timePositionNaut miles runAvg speedWind from/ knotsBaromVisibWave heightAir tempDewpointWater temp
2018-Aug-17 11:29N 51°42' W 005°03'0 0.0
2018-Aug-17 10:59N 51°42' W 005°03'0 0.0
2018-Aug-17 10:29N 51°42' W 005°03'0 0.0
2018-Aug-17 09:59N 51°42' W 005°03'0 0.0
2018-Aug-17 09:29N 51°42' W 005°03'0 0.0
2018-Aug-17 08:56N 51°42' W 005°03'0 0.0
2018-Aug-17 08:29N 51°42' W 005°03'0 0.0
2018-Aug-17 07:59N 51°42' W 005°03'0 0.0
2018-Aug-17 07:29N 51°42' W 005°03'0 0.0
2018-Aug-17 06:59N 51°42' W 005°03'0 0.0
2018-Aug-17 06:29N 51°42' W 005°03'0 0.0
2018-Aug-17 05:59N 51°42' W 005°03'0 0.0
2018-Aug-17 05:29N 51°42' W 005°03'0 0.0
2018-Aug-17 04:50N 51°42' W 005°03'0 0.0
2018-Aug-17 04:29N 51°42' W 005°03'0 0.0
2018-Aug-17 03:59N 51°42' W 005°03'0 0.0
2018-Aug-17 03:29N 51°42' W 005°03'0 0.0
2018-Aug-17 02:59N 51°42' W 005°03'0 0.0
2018-Aug-17 02:29N 51°42' W 005°03'0 0.0
2018-Aug-17 01:56N 51°42' W 005°03'0 0.0
2018-Aug-17 01:29N 51°42' W 005°03'0 0.0
2018-Aug-17 00:59N 51°42' W 005°03'0 0.0
2018-Aug-17 00:29N 51°42' W 005°03'0 0.0
2018-Aug-16 23:59N 51°42' W 005°03'0 0.0
2018-Aug-16 23:26N 51°42' W 005°03'0 0.0
2018-Aug-16 22:59N 51°42' W 005°03'0 0.0
2018-Aug-16 22:29N 51°42' W 005°03'0 0.0
2018-Aug-16 21:59N 51°42' W 005°03'0 0.0
2018-Aug-16 21:26N 51°42' W 005°03'0 0.0
2018-Aug-16 20:59N 51°42' W 005°03'0 0.0
2018-Aug-16 20:29N 51°42' W 005°03'0 0.0
2018-Aug-16 19:59N 51°42' W 005°03'0 0.0
2018-Aug-16 19:29N 51°42' W 005°03'0 0.0
2018-Aug-16 18:59N 51°42' W 005°03'0 0.0
2018-Aug-16 18:26N 51°42' W 005°03'0 0.0
2018-Aug-16 17:59N 51°42' W 005°03'0 0.0
2018-Aug-16 17:29N 51°42' W 005°03'0 0.0
2018-Aug-16 16:59N 51°42' W 005°03'0 0.0
2018-Aug-16 16:29N 51°42' W 005°03'0 0.0
2018-Aug-16 15:59N 51°42' W 005°03'0 0.0
2018-Aug-16 15:23N 51°42' W 005°03'0 0.0
2018-Aug-16 14:56N 51°42' W 005°03'0 0.0
2018-Aug-16 14:29N 51°42' W 005°03'0 0.0
2018-Aug-16 13:59N 51°42' W 005°03'0 0.0
2018-Aug-16 13:29N 51°42' W 005°03'0 0.0
2018-Aug-16 12:59N 51°42' W 005°03'0 0.0
2018-Aug-16 12:29N 51°42' W 005°03'0 0.0
2018-Aug-16 11:56N 51°42' W 005°03'0 0.0
2018-Aug-16 11:29N 51°42' W 005°03'0 0.0
2018-Aug-16 10:59N 51°42' W 005°03'0 0.0
2018-Aug-16 10:29N 51°42' W 005°03'0 0.0
2018-Aug-16 09:59N 51°42' W 005°03'0 0.0
2018-Aug-16 09:26N 51°42' W 005°03'0 0.0
2018-Aug-16 08:59N 51°42' W 005°03'0 0.0
2018-Aug-16 08:26N 51°42' W 005°03'0 0.0
2018-Aug-16 07:56N 51°42' W 005°03'0 0.0
2018-Aug-16 07:26N 51°42' W 005°03'0 0.0
2018-Aug-16 06:56N 51°42' W 005°03'0 0.2
2018-Aug-16 06:30N 51°42' W 005°03'3 5.1
2018-Aug-16 06:00N 51°42' W 005°07'510.0
2018-Aug-16 05:30N 51°38' W 005°12'2 4.4
2018-Aug-16 05:00N 51°37' W 005°15'3 5.5
2018-Aug-16 04:30N 51°36' W 005°19'1 1.8
2018-Aug-16 04:00N 51°36' W 005°18'1 1.7
2018-Aug-16 03:30N 51°36' W 005°16'0 0.9
2018-Aug-16 03:00N 51°36' W 005°17'2 3.9
2018-Aug-16 02:30N 51°37' W 005°17'3 5.1
2018-Aug-16 02:00N 51°40' W 005°18'611.1
2018-Aug-16 01:30N 51°45' W 005°20'4 1.9
2018-Aug-15 23:28N 51°46' W 005°14'0 0.1
2018-Aug-15 22:43N 51°46' W 005°14'0 0.0
2018-Aug-15 22:28N 51°46' W 005°14'0 0.0
2018-Aug-15 21:46N 51°46' W 005°14'0 0.1
2018-Aug-15 21:16N 51°46' W 005°14'0 0.0
2018-Aug-15 20:58N 51°46' W 005°14'0 0.0
2018-Aug-15 20:28N 51°46' W 005°14'0 0.0
2018-Aug-15 19:58N 51°46' W 005°14'0 0.0
2018-Aug-15 19:28N 51°46' W 005°14'0 0.0
2018-Aug-15 18:55N 51°46' W 005°14'0 0.0
2018-Aug-15 18:28N 51°46' W 005°14'0 0.0
2018-Aug-15 17:52N 51°46' W 005°14'0 0.1
2018-Aug-15 17:28N 51°46' W 005°14'0 0.0
2018-Aug-15 16:49N 51°46' W 005°14'0 0.0
2018-Aug-15 16:25N 51°46' W 005°14'0 0.1
2018-Aug-15 15:58N 51°46' W 005°14'0 0.1
2018-Aug-15 15:25N 51°46' W 005°14'0 0.1
2018-Aug-15 14:58N 51°46' W 005°14'0 0.0
2018-Aug-15 14:22N 51°46' W 005°14'0 0.0
2018-Aug-15 13:58N 51°46' W 005°14'0 0.0
2018-Aug-15 13:16N 51°46' W 005°14'0 0.0
2018-Aug-15 12:52N 51°46' W 005°14'0 0.0
2018-Aug-15 12:25N 51°46' W 005°14'0 0.0
2018-Aug-15 11:43N 51°46' W 005°14'0 0.1
2018-Aug-15 11:19N 51°46' W 005°14'0 0.1
2018-Aug-15 10:55N 51°46' W 005°14'0 0.1
2018-Aug-15 09:31N 51°46' W 005°14'0 0.1
2018-Aug-15 09:10N 51°46' W 005°14'0 0.0
2018-Aug-15 07:31N 51°46' W 005°14'0 0.0
2018-Aug-15 07:25N 51°46' W 005°14'0 0.0
2018-Aug-15 06:58N 51°46' W 005°14'0 0.0
2018-Aug-15 06:28N 51°46' W 005°14'0 0.0
2018-Aug-15 05:58N 51°46' W 005°14'0 0.0
2018-Aug-15 05:22N 51°46' W 005°14'0 0.0
2018-Aug-15 04:28N 51°46' W 005°14'0 0.0
2018-Aug-15 03:52N 51°46' W 005°14'0 0.0
2018-Aug-15 02:25N 51°46' W 005°14'0 0.1
2018-Aug-15 01:58N 51°45' W 005°14'0 0.0
2018-Aug-15 01:28N 51°45' W 005°14'0 0.0
2018-Aug-15 00:58N 51°45' W 005°14'0 0.0
2018-Aug-15 00:25N 51°45' W 005°14'0 0.1
2018-Aug-14 23:55N 51°46' W 005°14'0 0.0
2018-Aug-14 21:07N 51°46' W 005°14'0 0.1
2018-Aug-14 20:46N 51°46' W 005°14'0 0.0
2018-Aug-14 20:25N 51°46' W 005°14'0 0.0
2018-Aug-14 15:28N 51°46' W 005°14'0 0.0
2018-Aug-14 14:28N 51°46' W 005°14'0 0.1
2018-Aug-14 13:43N 51°45' W 005°14'0 0.0
2018-Aug-14 13:16N 51°45' W 005°14'0 0.0
2018-Aug-14 12:58N 51°45' W 005°14'0 0.0
2018-Aug-14 11:37N 51°45' W 005°14'0 0.0
2018-Aug-14 11:16N 51°45' W 005°14'0 0.0
2018-Aug-14 10:58N 51°45' W 005°14'0 0.0
2018-Aug-14 10:10N 51°46' W 005°14'0 0.1
2018-Aug-14 09:58N 51°46' W 005°14'0 0.0
2018-Aug-14 09:19N 51°46' W 005°14'0 0.1
2018-Aug-14 08:49N 51°45' W 005°14'0 0.1
2018-Aug-14 08:28N 51°45' W 005°14'0 0.0
2018-Aug-14 07:55N 51°45' W 005°14'0 0.0
2018-Aug-14 07:16N 51°45' W 005°14'0 0.1
2018-Aug-14 06:55N 51°46' W 005°14'0 0.1
2018-Aug-14 06:16N 51°46' W 005°14'0 0.0
2018-Aug-14 05:37N 51°46' W 005°14'0 0.0
2018-Aug-14 05:07N 51°46' W 005°14'0 0.0
2018-Aug-14 04:37N 51°46' W 005°14'0 0.0
2018-Aug-14 04:28N 51°46' W 005°14'0 0.0
2018-Aug-14 03:49N 51°46' W 005°14'0 0.1
2018-Aug-14 03:28N 51°45' W 005°14'0 0.0
2018-Aug-14 02:55N 51°45' W 005°14'0 0.2
2018-Aug-14 02:25N 51°45' W 005°14'0 0.1
2018-Aug-14 01:52N 51°45' W 005°14'0 0.0
2018-Aug-13 21:49N 51°45' W 005°14'0 0.0
2018-Aug-13 21:22N 51°45' W 005°14'0 0.1
2018-Aug-13 20:49N 51°45' W 005°14'0 0.0
2018-Aug-13 20:28N 51°45' W 005°14'0 0.0
2018-Aug-13 19:52N 51°45' W 005°14'0 0.1
2018-Aug-13 19:28N 51°45' W 005°14'0 0.1
2018-Aug-13 18:58N 51°45' W 005°14'0 0.1
2018-Aug-13 17:55N 51°46' W 005°14'0 0.0
2018-Aug-13 17:23N 51°46' W 005°14'2 5.5
2018-Aug-13 17:00N 51°47' W 005°17'14412.8
2018-Aug-13 05:45N 54°10' W 005°08'314.2
2018-Aug-13 05:30N 54°14' W 005°08'713.8
2018-Aug-13 05:00N 54°21' W 005°08'713.0
2018-Aug-13 04:30N 54°27' W 005°09'612.7
2018-Aug-13 04:00N 54°33' W 005°14'612.2
2018-Aug-13 03:30N 54°38' W 005°18'611.3
2018-Aug-13 03:00N 54°43' W 005°23'611.6
2018-Aug-13 02:30N 54°48' W 005°28'611.9
2018-Aug-13 02:00N 54°54' W 005°32'812.0
2018-Aug-13 01:23N 55°00' W 005°39'512.3
2018-Aug-13 00:59N 55°04' W 005°44'713.0
2018-Aug-13 00:28N 55°09' W 005°51'614.1
2018-Aug-13 00:00N 55°15' W 005°58'715.0
2018-Aug-12 23:30N 55°21' W 006°05'714.3
2018-Aug-12 23:00N 55°24' W 006°17'714.6
2018-Aug-12 22:30N 55°29' W 006°26'816.3
2018-Aug-12 22:00N 55°34' W 006°37'816.6
2018-Aug-12 21:30N 55°40' W 006°48'816.6
2018-Aug-12 21:00N 55°46' W 006°58'  
2018-Aug-10 13:51N 63°55' W 023°15'413.1
2018-Aug-10 13:30N 63°58' W 023°08'612.1
2018-Aug-10 13:00N 64°03' W 023°00'612.1
2018-Aug-10 12:30N 64°08' W 022°53'611.7
2018-Aug-10 12:00N 64°10' W 022°40'612.0
2018-Aug-10 11:30N 64°05' W 022°32'4 7.7
2018-Aug-10 11:00N 64°01' W 022°30'1 2.6
2018-Aug-10 10:29N 64°01' W 022°33'0 0.0
2018-Aug-10 09:59N 64°01' W 022°33'0 0.0
2018-Aug-10 09:29N 64°01' W 022°33'0 0.0
2018-Aug-10 08:38N 64°01' W 022°33'0 0.0
2018-Aug-10 08:26N 64°01' W 022°33'0 0.0
2018-Aug-10 07:56N 64°01' W 022°33'0 0.0
2018-Aug-10 05:59N 64°01' W 022°33'0 0.0
2018-Aug-10 05:26N 64°01' W 022°33'  
Track history (hours):
 
Tides and Currents Weather Stations Pressure Air Temp Water Temp Dewpoint Dewpoint Depression Visibility Wind Speed Wind Dir Waves Ship Positions

Hafnia Daisy

Last reported at 2018-Aug-17 11:29 UTC. Time now 2018-Aug-17 11:41 UTC.
Position N 51°42' W 005°03'.

Length 183 m; draft 8.1 m.

Type: Tanker. MMSI: 249347000.

Date/timePositionNaut miles runAvg speedWind from/ knotsBaromVisibWave heightAir tempDewpointWater temp
2018-Aug-17 11:29N 51°42' W 005°03'0 0.0
2018-Aug-17 10:59N 51°42' W 005°03'0 0.0
2018-Aug-17 10:29N 51°42' W 005°03'0 0.0
2018-Aug-17 09:59N 51°42' W 005°03'0 0.0
2018-Aug-17 09:29N 51°42' W 005°03'0 0.0
2018-Aug-17 08:56N 51°42' W 005°03'0 0.0
2018-Aug-17 08:29N 51°42' W 005°03'0 0.0
2018-Aug-17 07:59N 51°42' W 005°03'0 0.0
2018-Aug-17 07:29N 51°42' W 005°03'0 0.0
2018-Aug-17 06:59N 51°42' W 005°03'0 0.0
2018-Aug-17 06:29N 51°42' W 005°03'0 0.0
2018-Aug-17 05:59N 51°42' W 005°03'0 0.0
2018-Aug-17 05:29N 51°42' W 005°03'0 0.0
2018-Aug-17 04:50N 51°42' W 005°03'0 0.0
2018-Aug-17 04:29N 51°42' W 005°03'0 0.0
2018-Aug-17 03:59N 51°42' W 005°03'0 0.0
2018-Aug-17 03:29N 51°42' W 005°03'0 0.0
2018-Aug-17 02:59N 51°42' W 005°03'0 0.0
2018-Aug-17 02:29N 51°42' W 005°03'0 0.0
2018-Aug-17 01:56N 51°42' W 005°03'0 0.0
2018-Aug-17 01:29N 51°42' W 005°03'0 0.0
2018-Aug-17 00:59N 51°42' W 005°03'0 0.0
2018-Aug-17 00:29N 51°42' W 005°03'0 0.0
2018-Aug-16 23:59N 51°42' W 005°03'0 0.0
2018-Aug-16 23:26N 51°42' W 005°03'0 0.0
2018-Aug-16 22:59N 51°42' W 005°03'0 0.0
2018-Aug-16 22:29N 51°42' W 005°03'0 0.0
2018-Aug-16 21:59N 51°42' W 005°03'0 0.0
2018-Aug-16 21:26N 51°42' W 005°03'0 0.0
2018-Aug-16 20:59N 51°42' W 005°03'0 0.0
2018-Aug-16 20:29N 51°42' W 005°03'0 0.0
2018-Aug-16 19:59N 51°42' W 005°03'0 0.0
2018-Aug-16 19:29N 51°42' W 005°03'0 0.0
2018-Aug-16 18:59N 51°42' W 005°03'0 0.0
2018-Aug-16 18:26N 51°42' W 005°03'0 0.0
2018-Aug-16 17:59N 51°42' W 005°03'0 0.0
2018-Aug-16 17:29N 51°42' W 005°03'0 0.0
2018-Aug-16 16:59N 51°42' W 005°03'0 0.0
2018-Aug-16 16:29N 51°42' W 005°03'0 0.0
2018-Aug-16 15:59N 51°42' W 005°03'0 0.0
2018-Aug-16 15:23N 51°42' W 005°03'0 0.0
2018-Aug-16 14:56N 51°42' W 005°03'0 0.0
2018-Aug-16 14:29N 51°42' W 005°03'0 0.0
2018-Aug-16 13:59N 51°42' W 005°03'0 0.0
2018-Aug-16 13:29N 51°42' W 005°03'0 0.0
2018-Aug-16 12:59N 51°42' W 005°03'0 0.0
2018-Aug-16 12:29N 51°42' W 005°03'0 0.0
2018-Aug-16 11:56N 51°42' W 005°03'0 0.0
2018-Aug-16 11:29N 51°42' W 005°03'0 0.0
2018-Aug-16 10:59N 51°42' W 005°03'0 0.0
2018-Aug-16 10:29N 51°42' W 005°03'0 0.0
2018-Aug-16 09:59N 51°42' W 005°03'0 0.0
2018-Aug-16 09:26N 51°42' W 005°03'0 0.0
2018-Aug-16 08:59N 51°42' W 005°03'0 0.0
2018-Aug-16 08:26N 51°42' W 005°03'0 0.0
2018-Aug-16 07:56N 51°42' W 005°03'0 0.0
2018-Aug-16 07:26N 51°42' W 005°03'0 0.0
2018-Aug-16 06:56N 51°42' W 005°03'0 0.2
2018-Aug-16 06:30N 51°42' W 005°03'3 5.1
2018-Aug-16 06:00N 51°42' W 005°07'510.0
2018-Aug-16 05:30N 51°38' W 005°12'2 4.4
2018-Aug-16 05:00N 51°37' W 005°15'3 5.5
2018-Aug-16 04:30N 51°36' W 005°19'1 1.8
2018-Aug-16 04:00N 51°36' W 005°18'1 1.7
2018-Aug-16 03:30N 51°36' W 005°16'0 0.9
2018-Aug-16 03:00N 51°36' W 005°17'2 3.9
2018-Aug-16 02:30N 51°37' W 005°17'3 5.1
2018-Aug-16 02:00N 51°40' W 005°18'611.1
2018-Aug-16 01:30N 51°45' W 005°20'4 1.9
2018-Aug-15 23:28N 51°46' W 005°14'0 0.1
2018-Aug-15 22:43N 51°46' W 005°14'0 0.0
2018-Aug-15 22:28N 51°46' W 005°14'0 0.0
2018-Aug-15 21:46N 51°46' W 005°14'0 0.1
2018-Aug-15 21:16N 51°46' W 005°14'0 0.0
2018-Aug-15 20:58N 51°46' W 005°14'0 0.0
2018-Aug-15 20:28N 51°46' W 005°14'0 0.0
2018-Aug-15 19:58N 51°46' W 005°14'0 0.0
2018-Aug-15 19:28N 51°46' W 005°14'0 0.0
2018-Aug-15 18:55N 51°46' W 005°14'0 0.0
2018-Aug-15 18:28N 51°46' W 005°14'0 0.0
2018-Aug-15 17:52N 51°46' W 005°14'0 0.1
2018-Aug-15 17:28N 51°46' W 005°14'0 0.0
2018-Aug-15 16:49N 51°46' W 005°14'0 0.0
2018-Aug-15 16:25N 51°46' W 005°14'0 0.1
2018-Aug-15 15:58N 51°46' W 005°14'0 0.1
2018-Aug-15 15:25N 51°46' W 005°14'0 0.1
2018-Aug-15 14:58N 51°46' W 005°14'0 0.0
2018-Aug-15 14:22N 51°46' W 005°14'0 0.0
2018-Aug-15 13:58N 51°46' W 005°14'0 0.0
2018-Aug-15 13:16N 51°46' W 005°14'0 0.0
2018-Aug-15 12:52N 51°46' W 005°14'0 0.0
2018-Aug-15 12:25N 51°46' W 005°14'0 0.0
2018-Aug-15 11:43N 51°46' W 005°14'0 0.1
2018-Aug-15 11:19N 51°46' W 005°14'0 0.1
2018-Aug-15 10:55N 51°46' W 005°14'0 0.1
2018-Aug-15 09:31N 51°46' W 005°14'0 0.1
2018-Aug-15 09:10N 51°46' W 005°14'0 0.0
2018-Aug-15 07:31N 51°46' W 005°14'0 0.0
2018-Aug-15 07:25N 51°46' W 005°14'0 0.0
2018-Aug-15 06:58N 51°46' W 005°14'0 0.0
2018-Aug-15 06:28N 51°46' W 005°14'0 0.0
2018-Aug-15 05:58N 51°46' W 005°14'0 0.0
2018-Aug-15 05:22N 51°46' W 005°14'0 0.0
2018-Aug-15 04:28N 51°46' W 005°14'0 0.0
2018-Aug-15 03:52N 51°46' W 005°14'0 0.0
2018-Aug-15 02:25N 51°46' W 005°14'0 0.1
2018-Aug-15 01:58N 51°45' W 005°14'0 0.0
2018-Aug-15 01:28N 51°45' W 005°14'0 0.0
2018-Aug-15 00:58N 51°45' W 005°14'0 0.0
2018-Aug-15 00:25N 51°45' W 005°14'0 0.1
2018-Aug-14 23:55N 51°46' W 005°14'0 0.0
2018-Aug-14 21:07N 51°46' W 005°14'0 0.1
2018-Aug-14 20:46N 51°46' W 005°14'0 0.0
2018-Aug-14 20:25N 51°46' W 005°14'0 0.0
2018-Aug-14 15:28N 51°46' W 005°14'0 0.0
2018-Aug-14 14:28N 51°46' W 005°14'0 0.1
2018-Aug-14 13:43N 51°45' W 005°14'0 0.0
2018-Aug-14 13:16N 51°45' W 005°14'0 0.0
2018-Aug-14 12:58N 51°45' W 005°14'0 0.0
2018-Aug-14 11:37N 51°45' W 005°14'0 0.0
2018-Aug-14 11:16N 51°45' W 005°14'0 0.0
2018-Aug-14 10:58N 51°45' W 005°14'0 0.0
2018-Aug-14 10:10N 51°46' W 005°14'0 0.1
2018-Aug-14 09:58N 51°46' W 005°14'0 0.0
2018-Aug-14 09:19N 51°46' W 005°14'0 0.1
2018-Aug-14 08:49N 51°45' W 005°14'0 0.1
2018-Aug-14 08:28N 51°45' W 005°14'0 0.0
2018-Aug-14 07:55N 51°45' W 005°14'0 0.0
2018-Aug-14 07:16N 51°45' W 005°14'0 0.1
2018-Aug-14 06:55N 51°46' W 005°14'0 0.1
2018-Aug-14 06:16N 51°46' W 005°14'0 0.0
2018-Aug-14 05:37N 51°46' W 005°14'0 0.0
2018-Aug-14 05:07N 51°46' W 005°14'0 0.0
2018-Aug-14 04:37N 51°46' W 005°14'0 0.0
2018-Aug-14 04:28N 51°46' W 005°14'0 0.0
2018-Aug-14 03:49N 51°46' W 005°14'0 0.1
2018-Aug-14 03:28N 51°45' W 005°14'0 0.0
2018-Aug-14 02:55N 51°45' W 005°14'0 0.2
2018-Aug-14 02:25N 51°45' W 005°14'0 0.1
2018-Aug-14 01:52N 51°45' W 005°14'0 0.0
2018-Aug-13 21:49N 51°45' W 005°14'0 0.0
2018-Aug-13 21:22N 51°45' W 005°14'0 0.1
2018-Aug-13 20:49N 51°45' W 005°14'0 0.0
2018-Aug-13 20:28N 51°45' W 005°14'0 0.0
2018-Aug-13 19:52N 51°45' W 005°14'0 0.1
2018-Aug-13 19:28N 51°45' W 005°14'0 0.1
2018-Aug-13 18:58N 51°45' W 005°14'0 0.1
2018-Aug-13 17:55N 51°46' W 005°14'0 0.0
2018-Aug-13 17:23N 51°46' W 005°14'2 5.5
2018-Aug-13 17:00N 51°47' W 005°17'14412.8
2018-Aug-13 05:45N 54°10' W 005°08'314.2
2018-Aug-13 05:30N 54°14' W 005°08'713.8
2018-Aug-13 05:00N 54°21' W 005°08'713.0
2018-Aug-13 04:30N 54°27' W 005°09'612.7
2018-Aug-13 04:00N 54°33' W 005°14'612.2
2018-Aug-13 03:30N 54°38' W 005°18'611.3
2018-Aug-13 03:00N 54°43' W 005°23'611.6
2018-Aug-13 02:30N 54°48' W 005°28'611.9
2018-Aug-13 02:00N 54°54' W 005°32'812.0
2018-Aug-13 01:23N 55°00' W 005°39'512.3
2018-Aug-13 00:59N 55°04' W 005°44'713.0
2018-Aug-13 00:28N 55°09' W 005°51'614.1
2018-Aug-13 00:00N 55°15' W 005°58'715.0
2018-Aug-12 23:30N 55°21' W 006°05'714.3
2018-Aug-12 23:00N 55°24' W 006°17'714.6
2018-Aug-12 22:30N 55°29' W 006°26'816.3
2018-Aug-12 22:00N 55°34' W 006°37'816.6
2018-Aug-12 21:30N 55°40' W 006°48'816.6
2018-Aug-12 21:00N 55°46' W 006°58'  
2018-Aug-10 13:51N 63°55' W 023°15'413.1
2018-Aug-10 13:30N 63°58' W 023°08'612.1
2018-Aug-10 13:00N 64°03' W 023°00'612.1
2018-Aug-10 12:30N 64°08' W 022°53'611.7
2018-Aug-10 12:00N 64°10' W 022°40'612.0
2018-Aug-10 11:30N 64°05' W 022°32'4 7.7
2018-Aug-10 11:00N 64°01' W 022°30'1 2.6
2018-Aug-10 10:29N 64°01' W 022°33'0 0.0
2018-Aug-10 09:59N 64°01' W 022°33'0 0.0
2018-Aug-10 09:29N 64°01' W 022°33'0 0.0
2018-Aug-10 08:38N 64°01' W 022°33'0 0.0
2018-Aug-10 08:26N 64°01' W 022°33'0 0.0
2018-Aug-10 07:56N 64°01' W 022°33'0 0.0
2018-Aug-10 05:59N 64°01' W 022°33'0 0.0
2018-Aug-10 05:26N 64°01' W 022°33'  

Dump ship's entire track history